Ansonville, North Carolina
Current Conditions -  °F | °C
As of 11:55 AM on Friday 28 Nov 2014 (Local Time) from KAFP Reporting Station
Clear Clear  
Wind Chill: 42°   Ceiling: Unl
Heat Index: 42°   Visibility: 10mi
Dew Point: 18°   Wind: 0mph
Humidity: 37%   Direction: NA
Pressure: 30.36"   Gusts: NA
Location:  35.1°N, 80.11°W
Report Text: KAFP 281655Z AUTO 00000KT 10SM CLR 06/M08 A3036 RMK AO2 T00571079
Loading
Personal Weather Stations






























Interactive Weather Map New forecast layout! Learn more

10-Day Weather Forecast

Advertisements
Track Severe Weather on mobile